sensor_id;sensor_type;location;lat;lon;timestamp;P1;durP1;ratioP1;P2;durP2;ratioP2
21943;SDS011;11136;48.778;9.126;2023-03-31T00:01:17;4.82;;;1.40;;
21943;SDS011;11136;48.778;9.126;2023-03-31T00:03:43;5.47;;;1.60;;
21943;SDS011;11136;48.778;9.126;2023-03-31T00:06:12;3.95;;;1.65;;
21943;SDS011;11136;48.778;9.126;2023-03-31T00:08:42;4.50;;;1.30;;
21943;SDS011;11136;48.778;9.126;2023-03-31T00:11:08;4.15;;;1.70;;
21943;SDS011;11136;48.778;9.126;2023-03-31T00:13:34;3.28;;;1.83;;
21943;SDS011;11136;48.778;9.126;2023-03-31T00:16:04;5.88;;;2.35;;
21943;SDS011;11136;48.778;9.126;2023-03-31T00:18:32;8.52;;;1.80;;
21943;SDS011;11136;48.778;9.126;2023-03-31T00:21:08;4.78;;;1.35;;
21943;SDS011;11136;48.778;9.126;2023-03-31T00:23:39;3.83;;;1.67;;
21943;SDS011;11136;48.778;9.126;2023-03-31T00:26:05;7.60;;;1.95;;
21943;SDS011;11136;48.778;9.126;2023-03-31T00:28:31;4.80;;;1.50;;
21943;SDS011;11136;48.778;9.126;2023-03-31T00:31:01;4.20;;;1.52;;
21943;SDS011;11136;48.778;9.126;2023-03-31T00:33:27;7.15;;;1.88;;
21943;SDS011;11136;48.778;9.126;2023-03-31T00:35:54;4.93;;;1.70;;
21943;SDS011;11136;48.778;9.126;2023-03-31T00:38:20;6.78;;;2.00;;
21943;SDS011;11136;48.778;9.126;2023-03-31T00:40:46;3.85;;;1.48;;
21943;SDS011;11136;48.778;9.126;2023-03-31T00:43:20;2.72;;;1.30;;
21943;SDS011;11136;48.778;9.126;2023-03-31T00:45:53;2.60;;;1.30;;
21943;SDS011;11136;48.778;9.126;2023-03-31T00:48:20;5.35;;;1.77;;
21943;SDS011;11136;48.778;9.126;2023-03-31T00:50:50;5.78;;;1.67;;
21943;SDS011;11136;48.778;9.126;2023-03-31T00:53:22;3.95;;;1.63;;
21943;SDS011;11136;48.778;9.126;2023-03-31T00:55:53;6.18;;;1.80;;
21943;SDS011;11136;48.778;9.126;2023-03-31T00:58:23;4.28;;;1.75;;
21943;SDS011;11136;48.778;9.126;2023-03-31T01:00:52;6.13;;;1.70;;
21943;SDS011;11136;48.778;9.126;2023-03-31T01:03:20;6.72;;;1.45;;
21943;SDS011;11136;48.778;9.126;2023-03-31T01:06:02;4.90;;;1.42;;
21943;SDS011;11136;48.778;9.126;2023-03-31T01:08:31;3.97;;;1.70;;
21943;SDS011;11136;48.778;9.126;2023-03-31T01:11:01;5.22;;;1.90;;
21943;SDS011;11136;48.778;9.126;2023-03-31T01:13:30;3.95;;;1.42;;
21943;SDS011;11136;48.778;9.126;2023-03-31T01:15:58;6.13;;;2.00;;
21943;SDS011;11136;48.778;9.126;2023-03-31T01:18:24;6.80;;;1.48;;
21943;SDS011;11136;48.778;9.126;2023-03-31T01:32:55;7.15;;;1.73;;
21943;SDS011;11136;48.778;9.126;2023-03-31T01:44:33;10.13;;;2.20;;
21943;SDS011;11136;48.778;9.126;2023-03-31T01:47:35;5.28;;;2.00;;
21943;SDS011;11136;48.778;9.126;2023-03-31T01:50:54;7.50;;;1.80;;
21943;SDS011;11136;48.778;9.126;2023-03-31T01:53:01;8.75;;;1.83;;
21943;SDS011;11136;48.778;9.126;2023-03-31T01:55:34;4.32;;;1.70;;
21943;SDS011;11136;48.778;9.126;2023-03-31T01:58:25;4.75;;;1.67;;
21943;SDS011;11136;48.778;9.126;2023-03-31T02:01:14;3.80;;;1.35;;
21943;SDS011;11136;48.778;9.126;2023-03-31T02:07:11;4.07;;;1.63;;
21943;SDS011;11136;48.778;9.126;2023-03-31T02:09:43;5.13;;;2.03;;
21943;SDS011;11136;48.778;9.126;2023-03-31T02:12:13;4.75;;;1.67;;
21943;SDS011;11136;48.778;9.126;2023-03-31T02:14:42;5.45;;;1.60;;
21943;SDS011;11136;48.778;9.126;2023-03-31T02:17:13;7.70;;;1.57;;
21943;SDS011;11136;48.778;9.126;2023-03-31T02:19:43;6.78;;;1.80;;
21943;SDS011;11136;48.778;9.126;2023-03-31T02:22:13;6.07;;;2.25;;
21943;SDS011;11136;48.778;9.126;2023-03-31T02:24:43;6.07;;;2.33;;
21943;SDS011;11136;48.778;9.126;2023-03-31T02:27:27;8.95;;;1.88;;
21943;SDS011;11136;48.778;9.126;2023-03-31T02:29:59;4.60;;;1.83;;
21943;SDS011;11136;48.778;9.126;2023-03-31T02:32:31;8.57;;;2.08;;
21943;SDS011;11136;48.778;9.126;2023-03-31T02:35:05;5.68;;;1.75;;
21943;SDS011;11136;48.778;9.126;2023-03-31T02:37:33;6.25;;;2.05;;
21943;SDS011;11136;48.778;9.126;2023-03-31T02:40:00;6.15;;;1.90;;
21943;SDS011;11136;48.778;9.126;2023-03-31T02:42:35;4.78;;;2.05;;
21943;SDS011;11136;48.778;9.126;2023-03-31T02:45:05;5.03;;;1.60;;
21943;SDS011;11136;48.778;9.126;2023-03-31T02:47:51;4.35;;;1.48;;
21943;SDS011;11136;48.778;9.126;2023-03-31T02:50:17;8.30;;;2.03;;
21943;SDS011;11136;48.778;9.126;2023-03-31T02:53:01;6.80;;;1.98;;
21943;SDS011;11136;48.778;9.126;2023-03-31T02:55:42;3.45;;;2.28;;
21943;SDS011;11136;48.778;9.126;2023-03-31T02:58:46;3.75;;;1.45;;
21943;SDS011;11136;48.778;9.126;2023-03-31T03:04:32;3.90;;;1.88;;
21943;SDS011;11136;48.778;9.126;2023-03-31T03:12:35;4.53;;;2.15;;
21943;SDS011;11136;48.778;9.126;2023-03-31T03:15:27;4.88;;;1.90;;
21943;SDS011;11136;48.778;9.126;2023-03-31T03:17:57;3.78;;;1.75;;
21943;SDS011;11136;48.778;9.126;2023-03-31T03:20:23;4.22;;;1.80;;
21943;SDS011;11136;48.778;9.126;2023-03-31T03:22:49;8.13;;;2.38;;
21943;SDS011;11136;48.778;9.126;2023-03-31T03:25:15;3.83;;;1.77;;
21943;SDS011;11136;48.778;9.126;2023-03-31T03:27:42;6.43;;;1.80;;
21943;SDS011;11136;48.778;9.126;2023-03-31T03:30:08;3.47;;;2.22;;
21943;SDS011;11136;48.778;9.126;2023-03-31T03:32:36;11.63;;;1.92;;
21943;SDS011;11136;48.778;9.126;2023-03-31T03:35:02;6.55;;;1.85;;
21943;SDS011;11136;48.778;9.126;2023-03-31T03:37:29;9.90;;;2.45;;
21943;SDS011;11136;48.778;9.126;2023-03-31T03:39:55;5.75;;;1.95;;
21943;SDS011;11136;48.778;9.126;2023-03-31T03:42:20;5.32;;;1.70;;
21943;SDS011;11136;48.778;9.126;2023-03-31T03:44:46;3.88;;;2.40;;
21943;SDS011;11136;48.778;9.126;2023-03-31T03:47:12;5.50;;;1.85;;
21943;SDS011;11136;48.778;9.126;2023-03-31T03:49:38;5.18;;;1.83;;
21943;SDS011;11136;48.778;9.126;2023-03-31T03:52:04;5.63;;;2.05;;
21943;SDS011;11136;48.778;9.126;2023-03-31T03:54:30;5.35;;;1.98;;
21943;SDS011;11136;48.778;9.126;2023-03-31T03:56:56;5.45;;;2.50;;
21943;SDS011;11136;48.778;9.126;2023-03-31T03:59:22;4.38;;;1.92;;
21943;SDS011;11136;48.778;9.126;2023-03-31T04:01:47;3.40;;;2.35;;
21943;SDS011;11136;48.778;9.126;2023-03-31T04:04:13;7.25;;;2.00;;
21943;SDS011;11136;48.778;9.126;2023-03-31T04:06:39;5.35;;;2.95;;
21943;SDS011;11136;48.778;9.126;2023-03-31T04:09:04;6.20;;;2.05;;
21943;SDS011;11136;48.778;9.126;2023-03-31T04:11:30;7.70;;;2.30;;
21943;SDS011;11136;48.778;9.126;2023-03-31T04:13:56;3.63;;;1.65;;
21943;SDS011;11136;48.778;9.126;2023-03-31T04:16:22;5.80;;;2.03;;
21943;SDS011;11136;48.778;9.126;2023-03-31T04:18:49;6.28;;;2.08;;
21943;SDS011;11136;48.778;9.126;2023-03-31T04:23:47;5.78;;;2.10;;
21943;SDS011;11136;48.778;9.126;2023-03-31T04:26:26;6.50;;;2.40;;
21943;SDS011;11136;48.778;9.126;2023-03-31T04:29:06;6.63;;;3.28;;
21943;SDS011;11136;48.778;9.126;2023-03-31T04:31:32;9.93;;;2.38;;
21943;SDS011;11136;48.778;9.126;2023-03-31T04:33:57;6.57;;;2.22;;
21943;SDS011;11136;48.778;9.126;2023-03-31T04:36:30;12.48;;;3.03;;
21943;SDS011;11136;48.778;9.126;2023-03-31T04:38:57;7.63;;;2.90;;
21943;SDS011;11136;48.778;9.126;2023-03-31T04:41:23;7.35;;;2.85;;
21943;SDS011;11136;48.778;9.126;2023-03-31T04:43:51;9.07;;;2.60;;
21943;SDS011;11136;48.778;9.126;2023-03-31T04:46:17;5.10;;;2.55;;
21943;SDS011;11136;48.778;9.126;2023-03-31T04:48:43;5.97;;;2.65;;
21943;SDS011;11136;48.778;9.126;2023-03-31T04:51:08;6.70;;;2.38;;
21943;SDS011;11136;48.778;9.126;2023-03-31T04:53:34;5.53;;;2.25;;
21943;SDS011;11136;48.778;9.126;2023-03-31T04:56:00;3.70;;;2.42;;
21943;SDS011;11136;48.778;9.126;2023-03-31T04:58:26;7.28;;;2.42;;
21943;SDS011;11136;48.778;9.126;2023-03-31T05:00:52;4.28;;;2.75;;
21943;SDS011;11136;48.778;9.126;2023-03-31T05:03:18;4.50;;;2.30;;
21943;SDS011;11136;48.778;9.126;2023-03-31T05:05:44;6.93;;;3.05;;
21943;SDS011;11136;48.778;9.126;2023-03-31T05:08:10;7.32;;;2.88;;
21943;SDS011;11136;48.778;9.126;2023-03-31T05:10:35;7.63;;;2.90;;
21943;SDS011;11136;48.778;9.126;2023-03-31T05:13:01;6.30;;;2.80;;
21943;SDS011;11136;48.778;9.126;2023-03-31T05:15:26;9.00;;;3.10;;
21943;SDS011;11136;48.778;9.126;2023-03-31T05:17:52;5.75;;;2.55;;
21943;SDS011;11136;48.778;9.126;2023-03-31T05:20:18;7.78;;;2.70;;
21943;SDS011;11136;48.778;9.126;2023-03-31T05:22:44;10.82;;;3.15;;
21943;SDS011;11136;48.778;9.126;2023-03-31T05:25:10;12.20;;;3.20;;
21943;SDS011;11136;48.778;9.126;2023-03-31T05:27:38;8.38;;;3.10;;
21943;SDS011;11136;48.778;9.126;2023-03-31T05:30:04;10.25;;;2.45;;
21943;SDS011;11136;48.778;9.126;2023-03-31T05:32:32;11.02;;;4.10;;
21943;SDS011;11136;48.778;9.126;2023-03-31T05:34:59;8.23;;;3.10;;
21943;SDS011;11136;48.778;9.126;2023-03-31T05:37:25;6.20;;;3.47;;
21943;SDS011;11136;48.778;9.126;2023-03-31T05:39:51;5.95;;;3.33;;
21943;SDS011;11136;48.778;9.126;2023-03-31T05:42:17;8.15;;;2.65;;
21943;SDS011;11136;48.778;9.126;2023-03-31T05:44:43;6.95;;;3.22;;
21943;SDS011;11136;48.778;9.126;2023-03-31T05:47:09;5.00;;;2.50;;
21943;SDS011;11136;48.778;9.126;2023-03-31T05:49:35;4.95;;;2.92;;
21943;SDS011;11136;48.778;9.126;2023-03-31T05:52:02;11.90;;;4.03;;
21943;SDS011;11136;48.778;9.126;2023-03-31T05:54:30;7.00;;;3.40;;
21943;SDS011;11136;48.778;9.126;2023-03-31T05:56:56;7.13;;;3.50;;
21943;SDS011;11136;48.778;9.126;2023-03-31T05:59:21;9.45;;;3.92;;
21943;SDS011;11136;48.778;9.126;2023-03-31T06:01:47;11.00;;;4.13;;
21943;SDS011;11136;48.778;9.126;2023-03-31T06:04:12;9.23;;;3.88;;
21943;SDS011;11136;48.778;9.126;2023-03-31T06:06:38;6.78;;;3.22;;
21943;SDS011;11136;48.778;9.126;2023-03-31T06:09:04;12.27;;;3.50;;
21943;SDS011;11136;48.778;9.126;2023-03-31T06:11:30;8.55;;;3.78;;
21943;SDS011;11136;48.778;9.126;2023-03-31T06:13:56;10.43;;;3.72;;
21943;SDS011;11136;48.778;9.126;2023-03-31T06:16:21;10.32;;;3.97;;
21943;SDS011;11136;48.778;9.126;2023-03-31T06:18:47;5.80;;;3.50;;
21943;SDS011;11136;48.778;9.126;2023-03-31T06:21:16;11.75;;;4.32;;
21943;SDS011;11136;48.778;9.126;2023-03-31T06:23:42;10.40;;;3.88;;
21943;SDS011;11136;48.778;9.126;2023-03-31T06:26:12;10.02;;;4.35;;
21943;SDS011;11136;48.778;9.126;2023-03-31T06:28:40;7.50;;;3.85;;
21943;SDS011;11136;48.778;9.126;2023-03-31T06:31:10;7.78;;;3.70;;
21943;SDS011;11136;48.778;9.126;2023-03-31T06:33:40;8.38;;;3.60;;
21943;SDS011;11136;48.778;9.126;2023-03-31T06:36:07;7.53;;;3.42;;
21943;SDS011;11136;48.778;9.126;2023-03-31T06:38:33;8.50;;;3.60;;
21943;SDS011;11136;48.778;9.126;2023-03-31T06:41:00;9.93;;;4.38;;
21943;SDS011;11136;48.778;9.126;2023-03-31T06:43:27;13.23;;;4.28;;
21943;SDS011;11136;48.778;9.126;2023-03-31T06:45:53;7.78;;;4.18;;
21943;SDS011;11136;48.778;9.126;2023-03-31T06:48:19;12.15;;;4.03;;
21943;SDS011;11136;48.778;9.126;2023-03-31T06:50:45;8.85;;;3.90;;
21943;SDS011;11136;48.778;9.126;2023-03-31T06:53:11;7.57;;;3.88;;
21943;SDS011;11136;48.778;9.126;2023-03-31T06:55:36;9.90;;;3.90;;
21943;SDS011;11136;48.778;9.126;2023-03-31T06:58:03;11.90;;;4.65;;
21943;SDS011;11136;48.778;9.126;2023-03-31T07:00:29;9.45;;;4.28;;
21943;SDS011;11136;48.778;9.126;2023-03-31T07:02:56;8.32;;;3.72;;
21943;SDS011;11136;48.778;9.126;2023-03-31T07:05:22;8.43;;;3.53;;
21943;SDS011;11136;48.778;9.126;2023-03-31T07:07:53;7.70;;;3.50;;
21943;SDS011;11136;48.778;9.126;2023-03-31T07:10:20;7.95;;;3.88;;
21943;SDS011;11136;48.778;9.126;2023-03-31T07:12:47;13.60;;;3.60;;
21943;SDS011;11136;48.778;9.126;2023-03-31T07:15:12;8.40;;;3.53;;
21943;SDS011;11136;48.778;9.126;2023-03-31T07:17:38;7.40;;;3.45;;
21943;SDS011;11136;48.778;9.126;2023-03-31T07:20:07;6.82;;;3.38;;
21943;SDS011;11136;48.778;9.126;2023-03-31T07:22:36;5.70;;;2.78;;
21943;SDS011;11136;48.778;9.126;2023-03-31T07:25:02;8.32;;;2.85;;
21943;SDS011;11136;48.778;9.126;2023-03-31T07:27:28;4.32;;;2.10;;
21943;SDS011;11136;48.778;9.126;2023-03-31T07:29:54;4.22;;;2.40;;
21943;SDS011;11136;48.778;9.126;2023-03-31T07:32:20;4.25;;;2.17;;
21943;SDS011;11136;48.778;9.126;2023-03-31T07:34:47;3.13;;;1.90;;
21943;SDS011;11136;48.778;9.126;2023-03-31T07:37:13;6.20;;;2.35;;
21943;SDS011;11136;48.778;9.126;2023-03-31T07:39:38;4.78;;;1.42;;
21943;SDS011;11136;48.778;9.126;2023-03-31T07:42:04;2.55;;;1.50;;
21943;SDS011;11136;48.778;9.126;2023-03-31T07:44:32;3.95;;;1.95;;
21943;SDS011;11136;48.778;9.126;2023-03-31T07:46:58;2.50;;;1.38;;
21943;SDS011;11136;48.778;9.126;2023-03-31T07:49:28;1.77;;;1.15;;
21943;SDS011;11136;48.778;9.126;2023-03-31T07:51:54;1.75;;;1.25;;
21943;SDS011;11136;48.778;9.126;2023-03-31T07:54:20;1.30;;;1.08;;
21943;SDS011;11136;48.778;9.126;2023-03-31T07:56:46;1.92;;;1.20;;
21943;SDS011;11136;48.778;9.126;2023-03-31T07:59:13;1.90;;;1.10;;
21943;SDS011;11136;48.778;9.126;2023-03-31T08:01:38;1.70;;;0.93;;
21943;SDS011;11136;48.778;9.126;2023-03-31T08:04:04;2.05;;;1.10;;
21943;SDS011;11136;48.778;9.126;2023-03-31T08:06:30;2.03;;;1.00;;
21943;SDS011;11136;48.778;9.126;2023-03-31T08:08:57;3.05;;;1.10;;
21943;SDS011;11136;48.778;9.126;2023-03-31T08:11:23;1.80;;;0.90;;
21943;SDS011;11136;48.778;9.126;2023-03-31T08:13:50;0.90;;;0.68;;
21943;SDS011;11136;48.778;9.126;2023-03-31T08:16:16;2.80;;;1.23;;
21943;SDS011;11136;48.778;9.126;2023-03-31T08:18:41;1.17;;;0.93;;
21943;SDS011;11136;48.778;9.126;2023-03-31T08:21:07;1.42;;;0.70;;
21943;SDS011;11136;48.778;9.126;2023-03-31T08:23:37;1.73;;;0.73;;
21943;SDS011;11136;48.778;9.126;2023-03-31T08:26:09;2.90;;;0.80;;
21943;SDS011;11136;48.778;9.126;2023-03-31T08:28:36;2.45;;;0.93;;
21943;SDS011;11136;48.778;9.126;2023-03-31T08:31:05;2.22;;;1.13;;
21943;SDS011;11136;48.778;9.126;2023-03-31T08:33:32;2.88;;;0.90;;
21943;SDS011;11136;48.778;9.126;2023-03-31T08:36:02;2.35;;;0.82;;
21943;SDS011;11136;48.778;9.126;2023-03-31T08:38:29;3.40;;;1.38;;
21943;SDS011;11136;48.778;9.126;2023-03-31T08:40:59;2.00;;;1.20;;
21943;SDS011;11136;48.778;9.126;2023-03-31T08:43:39;1.63;;;1.05;;
21943;SDS011;11136;48.778;9.126;2023-03-31T08:46:12;3.63;;;1.17;;
21943;SDS011;11136;48.778;9.126;2023-03-31T08:48:40;3.28;;;1.15;;
21943;SDS011;11136;48.778;9.126;2023-03-31T08:51:17;2.20;;;1.10;;
21943;SDS011;11136;48.778;9.126;2023-03-31T08:53:51;3.00;;;0.95;;
21943;SDS011;11136;48.778;9.126;2023-03-31T08:56:27;1.88;;;0.98;;
21943;SDS011;11136;48.778;9.126;2023-03-31T08:58:53;3.58;;;1.25;;
21943;SDS011;11136;48.778;9.126;2023-03-31T09:01:22;3.95;;;1.25;;
21943;SDS011;11136;48.778;9.126;2023-03-31T09:06:53;5.30;;;1.38;;
21943;SDS011;11136;48.778;9.126;2023-03-31T09:12:34;4.03;;;1.00;;
21943;SDS011;11136;48.778;9.126;2023-03-31T09:15:13;2.28;;;1.02;;
21943;SDS011;11136;48.778;9.126;2023-03-31T09:17:49;5.18;;;1.15;;
21943;SDS011;11136;48.778;9.126;2023-03-31T09:20:17;2.50;;;1.00;;
21943;SDS011;11136;48.778;9.126;2023-03-31T09:22:48;4.18;;;0.98;;
21943;SDS011;11136;48.778;9.126;2023-03-31T09:25:22;2.30;;;0.82;;
21943;SDS011;11136;48.778;9.126;2023-03-31T09:27:54;4.53;;;1.23;;
21943;SDS011;11136;48.778;9.126;2023-03-31T09:30:29;4.90;;;1.30;;
21943;SDS011;11136;48.778;9.126;2023-03-31T09:33:22;3.45;;;0.93;;
21943;SDS011;11136;48.778;9.126;2023-03-31T09:36:00;4.07;;;1.38;;
21943;SDS011;11136;48.778;9.126;2023-03-31T09:38:32;7.18;;;1.33;;
21943;SDS011;11136;48.778;9.126;2023-03-31T09:40:58;3.13;;;1.10;;
21943;SDS011;11136;48.778;9.126;2023-03-31T09:43:27;2.85;;;1.10;;
21943;SDS011;11136;48.778;9.126;2023-03-31T09:45:54;3.03;;;1.10;;
21943;SDS011;11136;48.778;9.126;2023-03-31T09:48:22;6.72;;;1.25;;
21943;SDS011;11136;48.778;9.126;2023-03-31T09:51:02;3.20;;;0.68;;
21943;SDS011;11136;48.778;9.126;2023-03-31T09:53:37;3.33;;;1.00;;
21943;SDS011;11136;48.778;9.126;2023-03-31T09:56:12;2.72;;;0.93;;
21943;SDS011;11136;48.778;9.126;2023-03-31T09:59:18;3.95;;;1.52;;
21943;SDS011;11136;48.778;9.126;2023-03-31T10:04:17;4.18;;;1.02;;
21943;SDS011;11136;48.778;9.126;2023-03-31T10:06:46;4.85;;;1.38;;
21943;SDS011;11136;48.778;9.126;2023-03-31T10:09:12;6.55;;;1.30;;
21943;SDS011;11136;48.778;9.126;2023-03-31T10:11:39;4.72;;;1.60;;
21943;SDS011;11136;48.778;9.126;2023-03-31T10:14:39;7.32;;;1.75;;
21943;SDS011;11136;48.778;9.126;2023-03-31T10:17:11;4.57;;;1.40;;
21943;SDS011;11136;48.778;9.126;2023-03-31T10:19:46;2.85;;;1.40;;
21943;SDS011;11136;48.778;9.126;2023-03-31T10:24:48;6.13;;;1.40;;
21943;SDS011;11136;48.778;9.126;2023-03-31T10:29:50;5.40;;;1.42;;
21943;SDS011;11136;48.778;9.126;2023-03-31T10:32:21;4.82;;;1.35;;
21943;SDS011;11136;48.778;9.126;2023-03-31T10:34:49;6.68;;;1.77;;
21943;SDS011;11136;48.778;9.126;2023-03-31T10:37:16;6.05;;;1.45;;
21943;SDS011;11136;48.778;9.126;2023-03-31T10:39:44;5.30;;;1.48;;
21943;SDS011;11136;48.778;9.126;2023-03-31T10:42:17;3.40;;;1.35;;
21943;SDS011;11136;48.778;9.126;2023-03-31T10:44:47;6.18;;;1.38;;
21943;SDS011;11136;48.778;9.126;2023-03-31T10:49:47;8.50;;;1.60;;
21943;SDS011;11136;48.778;9.126;2023-03-31T10:52:21;5.50;;;1.25;;
21943;SDS011;11136;48.778;9.126;2023-03-31T10:54:50;3.25;;;1.60;;
21943;SDS011;11136;48.778;9.126;2023-03-31T10:57:22;8.90;;;1.88;;
21943;SDS011;11136;48.778;9.126;2023-03-31T11:00:06;4.65;;;1.83;;
21943;SDS011;11136;48.778;9.126;2023-03-31T11:16:23;4.85;;;1.50;;
21943;SDS011;11136;48.778;9.126;2023-03-31T11:21:47;3.05;;;1.17;;
21943;SDS011;11136;48.778;9.126;2023-03-31T11:37:33;1.05;;;0.52;;
21943;SDS011;11136;48.778;9.126;2023-03-31T11:45:44;2.15;;;0.50;;
21943;SDS011;11136;48.778;9.126;2023-03-31T11:48:17;0.90;;;0.30;;
21943;SDS011;11136;48.778;9.126;2023-03-31T11:51:12;1.80;;;0.40;;
21943;SDS011;11136;48.778;9.126;2023-03-31T11:53:42;0.52;;;0.22;;
21943;SDS011;11136;48.778;9.126;2023-03-31T11:56:11;1.90;;;0.60;;
21943;SDS011;11136;48.778;9.126;2023-03-31T11:58:43;4.10;;;1.48;;
21943;SDS011;11136;48.778;9.126;2023-03-31T12:03:53;1.48;;;0.30;;
21943;SDS011;11136;48.778;9.126;2023-03-31T12:06:40;2.42;;;0.50;;
21943;SDS011;11136;48.778;9.126;2023-03-31T12:14:42;1.95;;;0.60;;
21943;SDS011;11136;48.778;9.126;2023-03-31T12:17:24;1.13;;;0.22;;
21943;SDS011;11136;48.778;9.126;2023-03-31T12:19:55;1.27;;;0.35;;
21943;SDS011;11136;48.778;9.126;2023-03-31T12:22:25;1.45;;;0.38;;
21943;SDS011;11136;48.778;9.126;2023-03-31T12:25:04;1.58;;;0.38;;
21943;SDS011;11136;48.778;9.126;2023-03-31T12:27:37;0.75;;;0.30;;
21943;SDS011;11136;48.778;9.126;2023-03-31T12:30:09;0.35;;;0.30;;
21943;SDS011;11136;48.778;9.126;2023-03-31T12:32:46;1.30;;;0.47;;
21943;SDS011;11136;48.778;9.126;2023-03-31T12:35:19;0.52;;;0.50;;
21943;SDS011;11136;48.778;9.126;2023-03-31T12:37:59;1.63;;;0.40;;
21943;SDS011;11136;48.778;9.126;2023-03-31T12:40:42;6.47;;;0.65;;
21943;SDS011;11136;48.778;9.126;2023-03-31T12:43:17;0.50;;;0.50;;
21943;SDS011;11136;48.778;9.126;2023-03-31T12:49:06;1.15;;;0.57;;
21943;SDS011;11136;48.778;9.126;2023-03-31T12:51:34;0.95;;;0.38;;
21943;SDS011;11136;48.778;9.126;2023-03-31T12:54:39;2.08;;;0.90;;
21943;SDS011;11136;48.778;9.126;2023-03-31T12:57:27;2.63;;;0.50;;
21943;SDS011;11136;48.778;9.126;2023-03-31T13:02:44;1.83;;;0.50;;
21943;SDS011;11136;48.778;9.126;2023-03-31T13:08:01;5.45;;;1.00;;
21943;SDS011;11136;48.778;9.126;2023-03-31T13:10:32;4.20;;;1.17;;
21943;SDS011;11136;48.778;9.126;2023-03-31T13:13:34;4.93;;;1.10;;
21943;SDS011;11136;48.778;9.126;2023-03-31T13:16:00;9.80;;;1.73;;
21943;SDS011;11136;48.778;9.126;2023-03-31T13:18:26;2.03;;;0.90;;
21943;SDS011;11136;48.778;9.126;2023-03-31T13:21:03;2.35;;;0.50;;
21943;SDS011;11136;48.778;9.126;2023-03-31T13:23:33;3.25;;;1.02;;
21943;SDS011;11136;48.778;9.126;2023-03-31T13:26:00;3.42;;;0.82;;
21943;SDS011;11136;48.778;9.126;2023-03-31T13:28:38;4.30;;;0.95;;
21943;SDS011;11136;48.778;9.126;2023-03-31T13:31:09;1.80;;;0.70;;
21943;SDS011;11136;48.778;9.126;2023-03-31T13:33:39;1.92;;;0.43;;
21943;SDS011;11136;48.778;9.126;2023-03-31T13:55:05;0.55;;;0.20;;
21943;SDS011;11136;48.778;9.126;2023-03-31T14:06:11;0.30;;;0.30;;
21943;SDS011;11136;48.778;9.126;2023-03-31T14:16:27;1.08;;;0.50;;
21943;SDS011;11136;48.778;9.126;2023-03-31T14:22:40;0.93;;;0.30;;
21943;SDS011;11136;48.778;9.126;2023-03-31T14:28:00;0.70;;;0.30;;
21943;SDS011;11136;48.778;9.126;2023-03-31T14:30:05;0.80;;;0.43;;
21943;SDS011;11136;48.778;9.126;2023-03-31T14:37:41;0.88;;;0.60;;
21943;SDS011;11136;48.778;9.126;2023-03-31T14:40:09;0.98;;;0.25;;
21943;SDS011;11136;48.778;9.126;2023-03-31T14:42:40;2.28;;;0.80;;
21943;SDS011;11136;48.778;9.126;2023-03-31T14:45:23;1.02;;;0.40;;
21943;SDS011;11136;48.778;9.126;2023-03-31T14:50:29;1.55;;;0.30;;
21943;SDS011;11136;48.778;9.126;2023-03-31T14:52:58;2.42;;;0.32;;
21943;SDS011;11136;48.778;9.126;2023-03-31T14:55:26;2.17;;;0.50;;
21943;SDS011;11136;48.778;9.126;2023-03-31T14:57:53;1.95;;;0.82;;
21943;SDS011;11136;48.778;9.126;2023-03-31T15:00:29;1.30;;;0.52;;
21943;SDS011;11136;48.778;9.126;2023-03-31T15:02:57;0.93;;;0.40;;
21943;SDS011;11136;48.778;9.126;2023-03-31T15:05:31;1.23;;;0.40;;
21943;SDS011;11136;48.778;9.126;2023-03-31T15:08:18;2.28;;;0.43;;
21943;SDS011;11136;48.778;9.126;2023-03-31T15:10:48;1.85;;;0.50;;
21943;SDS011;11136;48.778;9.126;2023-03-31T15:13:18;5.65;;;0.57;;
21943;SDS011;11136;48.778;9.126;2023-03-31T15:15:48;3.17;;;0.60;;
21943;SDS011;11136;48.778;9.126;2023-03-31T15:18:14;3.03;;;0.55;;
21943;SDS011;11136;48.778;9.126;2023-03-31T15:20:41;1.48;;;0.45;;
21943;SDS011;11136;48.778;9.126;2023-03-31T15:26:01;2.83;;;0.65;;
21943;SDS011;11136;48.778;9.126;2023-03-31T15:28:33;4.05;;;0.57;;
21943;SDS011;11136;48.778;9.126;2023-03-31T15:31:04;1.60;;;0.70;;
21943;SDS011;11136;48.778;9.126;2023-03-31T15:33:33;5.25;;;0.77;;
21943;SDS011;11136;48.778;9.126;2023-03-31T15:36:06;3.20;;;0.75;;
21943;SDS011;11136;48.778;9.126;2023-03-31T15:38:32;1.13;;;0.60;;
21943;SDS011;11136;48.778;9.126;2023-03-31T15:40:58;2.08;;;0.70;;
21943;SDS011;11136;48.778;9.126;2023-03-31T15:43:28;1.55;;;0.50;;
21943;SDS011;11136;48.778;9.126;2023-03-31T15:45:57;1.65;;;0.47;;
21943;SDS011;11136;48.778;9.126;2023-03-31T15:48:28;2.13;;;0.70;;
21943;SDS011;11136;48.778;9.126;2023-03-31T15:51:01;2.92;;;0.60;;
21943;SDS011;11136;48.778;9.126;2023-03-31T15:53:34;3.40;;;0.90;;
21943;SDS011;11136;48.778;9.126;2023-03-31T15:56:02;2.95;;;0.82;;
21943;SDS011;11136;48.778;9.126;2023-03-31T16:01:19;2.28;;;0.60;;
21943;SDS011;11136;48.778;9.126;2023-03-31T16:03:46;2.28;;;0.63;;
21943;SDS011;11136;48.778;9.126;2023-03-31T16:09:01;1.02;;;0.50;;
21943;SDS011;11136;48.778;9.126;2023-03-31T16:17:10;2.38;;;0.98;;
21943;SDS011;11136;48.778;9.126;2023-03-31T16:19:46;3.13;;;0.68;;
21943;SDS011;11136;48.778;9.126;2023-03-31T16:22:18;1.67;;;0.60;;
21943;SDS011;11136;48.778;9.126;2023-03-31T16:24:47;2.65;;;0.60;;
21943;SDS011;11136;48.778;9.126;2023-03-31T16:27:14;4.57;;;1.05;;
21943;SDS011;11136;48.778;9.126;2023-03-31T16:29:40;6.80;;;1.05;;
21943;SDS011;11136;48.778;9.126;2023-03-31T16:32:07;2.25;;;0.80;;
21943;SDS011;11136;48.778;9.126;2023-03-31T16:34:54;3.58;;;0.63;;
21943;SDS011;11136;48.778;9.126;2023-03-31T16:37:19;2.28;;;0.60;;
21943;SDS011;11136;48.778;9.126;2023-03-31T16:39:45;2.03;;;0.63;;
21943;SDS011;11136;48.778;9.126;2023-03-31T16:42:11;1.92;;;0.70;;
21943;SDS011;11136;48.778;9.126;2023-03-31T16:44:36;1.73;;;0.43;;
21943;SDS011;11136;48.778;9.126;2023-03-31T16:47:02;1.77;;;0.85;;
21943;SDS011;11136;48.778;9.126;2023-03-31T16:49:27;3.40;;;0.93;;
21943;SDS011;11136;48.778;9.126;2023-03-31T16:51:53;1.20;;;0.77;;
21943;SDS011;11136;48.778;9.126;2023-03-31T16:54:18;1.15;;;0.50;;
21943;SDS011;11136;48.778;9.126;2023-03-31T16:56:44;4.15;;;1.23;;
21943;SDS011;11136;48.778;9.126;2023-03-31T16:59:11;0.85;;;0.40;;
21943;SDS011;11136;48.778;9.126;2023-03-31T17:01:37;0.55;;;0.50;;
21943;SDS011;11136;48.778;9.126;2023-03-31T17:04:03;0.75;;;0.38;;
21943;SDS011;11136;48.778;9.126;2023-03-31T17:06:28;0.93;;;0.50;;
21943;SDS011;11136;48.778;9.126;2023-03-31T17:08:55;1.42;;;0.60;;
21943;SDS011;11136;48.778;9.126;2023-03-31T17:11:21;1.02;;;0.40;;
21943;SDS011;11136;48.778;9.126;2023-03-31T17:13:46;0.80;;;0.30;;
21943;SDS011;11136;48.778;9.126;2023-03-31T17:16:13;0.77;;;0.45;;
21943;SDS011;11136;48.778;9.126;2023-03-31T17:18:38;3.20;;;0.73;;
21943;SDS011;11136;48.778;9.126;2023-03-31T17:21:05;3.50;;;0.60;;
21943;SDS011;11136;48.778;9.126;2023-03-31T17:23:36;1.67;;;0.55;;
21943;SDS011;11136;48.778;9.126;2023-03-31T17:26:03;4.43;;;1.00;;
21943;SDS011;11136;48.778;9.126;2023-03-31T17:28:30;1.35;;;0.57;;
21943;SDS011;11136;48.778;9.126;2023-03-31T17:30:56;1.48;;;0.60;;
21943;SDS011;11136;48.778;9.126;2023-03-31T17:33:22;3.22;;;0.70;;
21943;SDS011;11136;48.778;9.126;2023-03-31T17:35:49;2.03;;;0.57;;
21943;SDS011;11136;48.778;9.126;2023-03-31T17:38:14;1.00;;;0.47;;
21943;SDS011;11136;48.778;9.126;2023-03-31T17:40:43;3.13;;;0.60;;
21943;SDS011;11136;48.778;9.126;2023-03-31T17:43:09;2.72;;;0.73;;
21943;SDS011;11136;48.778;9.126;2023-03-31T17:45:35;2.33;;;0.60;;
21943;SDS011;11136;48.778;9.126;2023-03-31T17:48:00;3.50;;;0.73;;
21943;SDS011;11136;48.778;9.126;2023-03-31T17:50:26;1.88;;;0.70;;
21943;SDS011;11136;48.778;9.126;2023-03-31T17:52:52;1.25;;;0.52;;